Humidity-temperature Sensor

Selected Measurement Type: Air Temperature

 
Air Temperature [°C]     6 entries per hour
Showing data from 11/10/2021 (00:00:00 Z) to 11/9/2021 (00:01:00 Z)
Previous Next [ Day | 3-Days | 7-Days ]
First Last
Prev [ Day | 3-Days | 7-Days ] Next
First Last

Start Time:     :
End Time:     :     
Time (in GMT) :00 :50 :40 :30 :20 :10
Previous Next [ Day | 3-Days | 7-Days ]
First Last
Prev [ Day | 3-Days | 7-Days ] Next
First Last


123 => good data
MM => data is determined as missing
-- => data not received/configured
Back to Top Back to Top
11/10/2021 00:00 to 23:10 23.85 23.86 23.73 23.80 23.78 23.78
11/9/2021 23:00 to 22:10 23.84 23.74 23.77 23.91 23.82 23.87
11/9/2021 22:00 to 21:10 23.94 24.18 24.04 23.97 23.98 24.04
11/9/2021 21:00 to 20:10 24.02 24.08 24.21 24.08 24.13 24.06
11/9/2021 20:00 to 19:10 23.99 24.11 24.04 24.02 23.92 23.93
11/9/2021 19:00 to 18:10 23.93 23.90 23.86 23.94 23.81 23.84
11/9/2021 18:00 to 17:10 23.78 23.51 23.72 23.57 23.57 23.67
11/9/2021 17:00 to 16:10 23.74 24.08 24.21 24.14 24.17 24.12
11/9/2021 16:00 to 15:10 24.12 23.99 23.87 23.96 24.09 23.54
11/9/2021 15:00 to 14:10 23.47 23.65 23.55 23.22 23.32 23.29
11/9/2021 14:00 to 13:10 23.29 23.11 22.71 22.54 22.40 22.83
11/9/2021 13:00 to 12:10 23.63 23.10 22.94 22.84 22.54 22.29
11/9/2021 12:00 to 11:10 22.25 22.75 22.82 22.87 22.74 22.52
11/9/2021 11:00 to 10:10 22.33 22.22 22.55 22.13 21.98 21.93
11/9/2021 10:00 to 9:10 22.17 22.53 22.95 22.85 22.41 22.47
11/9/2021 09:00 to 8:10 22.50 22.77 22.49 22.07 22.05 23.15
11/9/2021 08:00 to 7:10 23.49 23.39 23.15 23.29 23.22 23.10
11/9/2021 07:00 to 6:10 22.90 23.00 22.95 23.02 23.13 22.93
11/9/2021 06:00 to 5:10 23.45 23.42 23.43 23.45 23.56 23.35
11/9/2021 05:00 to 4:10 23.40 23.36 23.29 23.40 23.69 23.66
11/9/2021 04:00 to 3:10 23.67 23.67 23.98 24.01 24.10 24.05
11/9/2021 03:00 to 2:10 24.14 24.06 23.61 23.78 23.68 23.49
11/9/2021 02:00 to 1:10 23.41 23.41 23.31 23.22 23.29 23.17
11/9/2021 01:00 to 0:10 23.30 23.25 23.11 23.11 23.86 23.71